Time;durP1;ratioP1;P1;durP2;ratioP2;P2;SDS_P1;SDS_P2;PMS_P1;PMS_P2;Temp;Humidity;BMP_temperature;BMP_pressure;BME280_temperature;BME280_humidity;BME280_pressure;Samples;Min_cycle;Max_cycle;Signal;HPM_P1;HPM_P2
2021/09/08 00:00:59;;;;;;;25.02;19.23;;;;;;;;;;5093966;28;20031;-67
2021/09/08 00:03:25;;;;;;;24.20;20.23;;;;;;;;;;5083868;28;20025;-66
2021/09/08 00:05:51;;;;;;;22.83;19.05;;;;;;;;;;5074435;28;20118;-66
2021/09/08 00:08:17;;;;;;;24.08;20.63;;;;;;;;;;5074755;28;20031;-66
2021/09/08 00:10:43;;;;;;;24.20;20.23;;;;;;;;;;5074642;28;20033;-67
2021/09/08 00:13:09;;;;;;;22.98;19.60;;;;;;;;;;5073354;28;20037;-67
2021/09/08 00:15:35;;;;;;;24.65;20.08;;;;;;;;;;5073217;28;20031;-66
2021/09/08 00:18:01;;;;;;;24.73;20.67;;;;;;;;;;5075641;28;20028;-67
2021/09/08 00:20:27;;;;;;;25.98;20.27;;;;;;;;;;5073523;28;20549;-67
2021/09/08 00:22:53;;;;;;;23.02;19.70;;;;;;;;;;5074473;28;20112;-67
2021/09/08 00:25:19;;;;;;;24.55;20.00;;;;;;;;;;5074456;28;20099;-66
2021/09/08 00:27:45;;;;;;;28.27;21.80;;;;;;;;;;5074318;28;20023;-67
2021/09/08 00:30:12;;;;;;;24.35;20.55;;;;;;;;;;5082282;28;20541;-67
2021/09/08 00:32:38;;;;;;;23.90;19.77;;;;;;;;;;5093238;28;20020;-67
2021/09/08 00:35:05;;;;;;;25.60;20.90;;;;;;;;;;5094378;28;20039;-67
2021/09/08 00:37:31;;;;;;;24.52;21.20;;;;;;;;;;5094533;28;20032;-69
2021/09/08 00:39:57;;;;;;;24.73;20.48;;;;;;;;;;5093319;28;20169;-67
2021/09/08 00:42:23;;;;;;;24.60;19.95;;;;;;;;;;5094423;28;20027;-67
2021/09/08 00:44:49;;;;;;;25.00;20.70;;;;;;;;;;5092560;28;20021;-67
2021/09/08 00:47:16;;;;;;;24.40;20.45;;;;;;;;;;5094167;28;20028;-67
2021/09/08 00:49:43;;;;;;;25.27;20.65;;;;;;;;;;5094315;28;20028;-67
2021/09/08 00:52:13;;;;;;;23.90;20.15;;;;;;;;;;5092783;28;20034;-67
2021/09/08 00:54:39;;;;;;;25.15;20.45;;;;;;;;;;5093505;28;20028;-67
2021/09/08 00:57:06;;;;;;;23.48;20.92;;;;;;;;;;5092220;28;20039;-67
2021/09/08 00:59:35;;;;;;;25.20;21.13;;;;;;;;;;5094191;28;20103;-66
2021/09/08 01:02:04;;;;;;;27.38;21.25;;;;;;;;;;5091164;28;20028;-67
2021/09/08 01:04:30;;;;;;;25.63;20.00;;;;;;;;;;5093081;28;20028;-67
2021/09/08 01:07:00;;;;;;;26.17;22.00;;;;;;;;;;5092729;28;20391;-67
2021/09/08 01:09:28;;;;;;;28.10;23.23;;;;;;;;;;5093967;28;20032;-69
2021/09/08 01:11:54;;;;;;;24.33;21.73;;;;;;;;;;5092752;28;20054;-67
2021/09/08 01:14:20;;;;;;;25.27;20.80;;;;;;;;;;5093693;28;20078;-66
2021/09/08 01:16:53;;;;;;;25.85;21.23;;;;;;;;;;5090728;28;20042;-67
2021/09/08 01:19:19;;;;;;;24.33;20.02;;;;;;;;;;5092405;28;20445;-67
2021/09/08 01:21:45;;;;;;;23.52;19.67;;;;;;;;;;5092188;28;20618;-67
2021/09/08 01:24:11;;;;;;;23.73;20.50;;;;;;;;;;5093527;28;20024;-67
2021/09/08 01:26:39;;;;;;;23.90;20.10;;;;;;;;;;5092305;28;20377;-66
2021/09/08 01:29:05;;;;;;;27.20;20.77;;;;;;;;;;5092367;28;20024;-67
2021/09/08 01:31:31;;;;;;;26.27;20.80;;;;;;;;;;5091832;28;20029;-67
2021/09/08 01:33:57;;;;;;;27.63;21.42;;;;;;;;;;5093252;28;20097;-67
2021/09/08 01:36:23;;;;;;;26.92;21.85;;;;;;;;;;5093308;28;20480;-67
2021/09/08 01:38:49;;;;;;;23.45;19.52;;;;;;;;;;5093537;28;20052;-67
2021/09/08 01:41:15;;;;;;;29.10;22.20;;;;;;;;;;5093256;28;20035;-67
2021/09/08 01:43:41;;;;;;;26.38;21.73;;;;;;;;;;5091815;28;20024;-67
2021/09/08 01:46:07;;;;;;;27.02;20.48;;;;;;;;;;5091878;28;20031;-67
2021/09/08 01:48:33;;;;;;;25.60;21.10;;;;;;;;;;5090197;28;20475;-69
2021/09/08 01:50:59;;;;;;;26.42;21.40;;;;;;;;;;5093100;28;20069;-67
2021/09/08 01:53:25;;;;;;;26.60;21.00;;;;;;;;;;5093176;28;20021;-66
2021/09/08 01:55:51;;;;;;;27.73;21.80;;;;;;;;;;5092744;28;20421;-67
2021/09/08 01:58:17;;;;;;;26.58;21.65;;;;;;;;;;5093072;28;20032;-66
2021/09/08 02:00:43;;;;;;;25.50;20.98;;;;;;;;;;5091678;28;20169;-66
2021/09/08 02:03:09;;;;;;;26.88;22.30;;;;;;;;;;5089322;28;20096;-67
2021/09/08 02:05:36;;;;;;;28.92;23.33;;;;;;;;;;5092113;28;20484;-67
2021/09/08 02:08:02;;;;;;;25.27;19.92;;;;;;;;;;5092782;28;20047;-67
2021/09/08 02:10:28;;;;;;;27.75;23.05;;;;;;;;;;5091530;28;20494;-67
2021/09/08 02:12:54;;;;;;;27.08;22.35;;;;;;;;;;5091702;28;20059;-67
2021/09/08 02:15:20;;;;;;;27.42;22.65;;;;;;;;;;5092552;28;20101;-67
2021/09/08 02:17:46;;;;;;;28.75;23.05;;;;;;;;;;5090343;28;20056;-67
2021/09/08 02:20:12;;;;;;;27.52;22.50;;;;;;;;;;5078199;28;20024;-67
2021/09/08 02:22:39;;;;;;;27.20;20.73;;;;;;;;;;5072455;28;20545;-67
2021/09/08 02:25:05;;;;;;;25.67;22.33;;;;;;;;;;5072257;28;20057;-67
2021/09/08 02:27:31;;;;;;;26.35;21.58;;;;;;;;;;5072295;28;20020;-67
2021/09/08 02:30:00;;;;;;;28.25;21.58;;;;;;;;;;5076894;28;20038;-67
2021/09/08 02:32:26;;;;;;;28.55;22.75;;;;;;;;;;5092354;28;20036;-67
2021/09/08 02:34:52;;;;;;;26.35;21.48;;;;;;;;;;5090954;28;20148;-66
2021/09/08 02:37:18;;;;;;;28.10;22.33;;;;;;;;;;5092334;28;20024;-67
2021/09/08 02:39:44;;;;;;;25.25;22.17;;;;;;;;;;5090886;28;20024;-67
2021/09/08 02:42:11;;;;;;;25.88;21.95;;;;;;;;;;5090930;28;20020;-67
2021/09/08 02:44:37;;;;;;;27.83;21.98;;;;;;;;;;5090299;28;20107;-67
2021/09/08 02:47:03;;;;;;;29.20;22.85;;;;;;;;;;5089642;28;20039;-66
2021/09/08 02:49:29;;;;;;;26.75;21.23;;;;;;;;;;5090941;28;20028;-67
2021/09/08 02:51:55;;;;;;;28.38;23.75;;;;;;;;;;5091088;28;20522;-67
2021/09/08 02:54:21;;;;;;;30.85;22.50;;;;;;;;;;5090810;28;20065;-67
2021/09/08 02:56:47;;;;;;;26.60;22.08;;;;;;;;;;5092152;28;20031;-66
2021/09/08 02:59:13;;;;;;;26.83;21.48;;;;;;;;;;5091035;28;20084;-67
2021/09/08 03:01:39;;;;;;;28.92;23.10;;;;;;;;;;5082483;28;20035;-67
2021/09/08 03:04:05;;;;;;;28.27;23.17;;;;;;;;;;5071830;28;20031;-67
2021/09/08 03:06:31;;;;;;;28.77;22.30;;;;;;;;;;5070623;28;20017;-67
2021/09/08 03:08:57;;;;;;;29.65;23.08;;;;;;;;;;5072070;28;20476;-69
2021/09/08 03:11:23;;;;;;;27.75;22.50;;;;;;;;;;5070642;28;20033;-67
2021/09/08 03:13:49;;;;;;;27.23;23.40;;;;;;;;;;5071561;28;20161;-67
2021/09/08 03:16:16;;;;;;;30.23;22.55;;;;;;;;;;5074298;28;20073;-67
2021/09/08 03:18:43;;;;;;;28.02;23.92;;;;;;;;;;5075917;28;20036;-67
2021/09/08 03:21:09;;;;;;;28.35;23.15;;;;;;;;;;5074959;28;20025;-67
2021/09/08 03:23:34;;;;;;;26.50;22.73;;;;;;;;;;5074207;28;20020;-67
2021/09/08 03:26:01;;;;;;;27.13;22.15;;;;;;;;;;5074198;28;20028;-67
2021/09/08 03:28:27;;;;;;;30.52;22.50;;;;;;;;;;5074308;28;20047;-67
2021/09/08 03:30:53;;;;;;;27.95;22.67;;;;;;;;;;5074086;28;20464;-66
2021/09/08 03:33:19;;;;;;;28.17;22.52;;;;;;;;;;5075798;28;20024;-67
2021/09/08 03:35:45;;;;;;;28.30;23.90;;;;;;;;;;5075921;28;20033;-67
2021/09/08 03:38:11;;;;;;;28.15;22.08;;;;;;;;;;5075782;28;20021;-67
2021/09/08 03:40:38;;;;;;;26.98;22.08;;;;;;;;;;5075448;28;20029;-67
2021/09/08 03:43:05;;;;;;;27.92;23.75;;;;;;;;;;5075154;28;20024;-67
2021/09/08 03:45:31;;;;;;;28.02;22.52;;;;;;;;;;5074037;28;20033;-68
2021/09/08 03:47:57;;;;;;;27.95;22.77;;;;;;;;;;5073846;28;20027;-67
2021/09/08 03:50:23;;;;;;;34.13;30.40;;;;;;;;;;5075247;28;20035;-67
2021/09/08 03:52:50;;;;;;;42.50;36.33;;;;;;;;;;5074837;28;20032;-67
2021/09/08 03:55:16;;;;;;;32.00;26.92;;;;;;;;;;5094459;28;20024;-67
2021/09/08 03:57:42;;;;;;;28.42;21.75;;;;;;;;;;5093788;28;20031;-66
2021/09/08 04:00:09;;;;;;;31.75;25.77;;;;;;;;;;5093206;28;20024;-67
2021/09/08 04:02:35;;;;;;;27.92;22.98;;;;;;;;;;5088179;28;20048;-67
2021/09/08 04:05:01;;;;;;;26.27;21.75;;;;;;;;;;5073471;28;20023;-68
2021/09/08 04:07:27;;;;;;;29.20;23.23;;;;;;;;;;5073564;28;20127;-67
2021/09/08 04:09:54;;;;;;;28.42;24.13;;;;;;;;;;5074499;28;20028;-68
2021/09/08 04:12:20;;;;;;;37.00;30.92;;;;;;;;;;5073528;28;20028;-66
2021/09/08 04:14:46;;;;;;;27.40;22.60;;;;;;;;;;5073332;28;20021;-66
2021/09/08 04:17:12;;;;;;;28.67;23.77;;;;;;;;;;5074654;28;20029;-67
2021/09/08 04:19:38;;;;;;;29.33;23.25;;;;;;;;;;5073699;28;20091;-66
2021/09/08 04:22:04;;;;;;;28.75;22.42;;;;;;;;;;5074509;28;20086;-67
2021/09/08 04:24:30;;;;;;;29.00;23.10;;;;;;;;;;5074327;28;20048;-67
2021/09/08 04:26:56;;;;;;;28.77;23.20;;;;;;;;;;5079044;28;20507;-67
2021/09/08 04:29:22;;;;;;;31.90;26.08;;;;;;;;;;5093731;28;20020;-68
2021/09/08 04:31:48;;;;;;;28.92;22.58;;;;;;;;;;5094813;28;20082;-67
2021/09/08 04:34:14;;;;;;;28.45;23.35;;;;;;;;;;5093602;28;20089;-67
2021/09/08 04:36:40;;;;;;;26.55;21.90;;;;;;;;;;5094384;28;20150;-67
2021/09/08 04:39:06;;;;;;;29.63;22.05;;;;;;;;;;5094195;28;20076;-67
2021/09/08 04:41:32;;;;;;;29.08;22.63;;;;;;;;;;5093034;28;20695;-67
2021/09/08 04:43:58;;;;;;;32.50;23.73;;;;;;;;;;5092386;28;20020;-67
2021/09/08 04:46:24;;;;;;;31.13;23.70;;;;;;;;;;5093928;28;20492;-67
2021/09/08 04:48:50;;;;;;;29.48;22.77;;;;;;;;;;5093035;28;20500;-67
2021/09/08 04:51:16;;;;;;;28.75;22.23;;;;;;;;;;5092875;28;20059;-68
2021/09/08 04:53:44;;;;;;;30.33;22.80;;;;;;;;;;5092477;28;20101;-66
2021/09/08 04:56:10;;;;;;;35.83;23.38;;;;;;;;;;5094211;28;20024;-67
2021/09/08 04:58:36;;;;;;;32.47;21.30;;;;;;;;;;5090192;28;20174;-67
2021/09/08 05:01:01;;;;;;;31.15;21.98;;;;;;;;;;5086404;28;20313;-66
2021/09/08 05:03:27;;;;;;;29.30;22.95;;;;;;;;;;5082446;28;20024;-66
2021/09/08 05:05:53;;;;;;;30.02;21.42;;;;;;;;;;5071904;28;20024;-66
2021/09/08 05:08:19;;;;;;;28.95;22.42;;;;;;;;;;5085055;28;20402;-66
2021/09/08 05:10:45;;;;;;;29.85;22.10;;;;;;;;;;5093496;28;20020;-67
2021/09/08 05:13:11;;;;;;;29.02;22.63;;;;;;;;;;5091850;28;20030;-66
2021/09/08 05:15:37;;;;;;;29.23;22.13;;;;;;;;;;5089915;28;20189;-66
2021/09/08 05:18:03;;;;;;;30.92;22.27;;;;;;;;;;5074011;28;20090;-66
2021/09/08 05:20:29;;;;;;;29.30;22.80;;;;;;;;;;5087387;28;20051;-65
2021/09/08 05:22:55;;;;;;;26.65;21.30;;;;;;;;;;5093070;28;20095;-65
2021/09/08 05:25:21;;;;;;;32.67;22.98;;;;;;;;;;5092834;28;20099;-66
2021/09/08 05:27:47;;;;;;;35.15;23.77;;;;;;;;;;5091585;28;20028;-66
2021/09/08 05:30:13;;;;;;;31.35;22.02;;;;;;;;;;5093041;28;20051;-66
2021/09/08 05:32:39;;;;;;;34.13;23.27;;;;;;;;;;5088959;28;20028;-67
2021/09/08 05:35:06;;;;;;;29.40;23.02;;;;;;;;;;5072400;28;20051;-67
2021/09/08 05:37:32;;;;;;;35.97;23.77;;;;;;;;;;5071285;28;20425;-71
2021/09/08 05:39:58;;;;;;;31.30;21.85;;;;;;;;;;5072478;28;20035;-66
2021/09/08 05:42:24;;;;;;;29.35;23.23;;;;;;;;;;5072567;28;20028;-66
2021/09/08 05:44:50;;;;;;;33.42;23.92;;;;;;;;;;5072051;28;20028;-66
2021/09/08 05:47:16;;;;;;;29.52;20.77;;;;;;;;;;5072719;28;20035;-65
2021/09/08 05:49:42;;;;;;;31.02;23.15;;;;;;;;;;5072310;28;20408;-65
2021/09/08 05:52:08;;;;;;;31.90;23.52;;;;;;;;;;5080671;28;20066;-65
2021/09/08 05:54:34;;;;;;;29.30;23.05;;;;;;;;;;5091376;28;20395;-66
2021/09/08 05:57:00;;;;;;;30.00;23.60;;;;;;;;;;5092736;28;20028;-66
2021/09/08 05:59:26;;;;;;;29.10;22.02;;;;;;;;;;5091089;28;20026;-66
2021/09/08 06:01:51;;;;;;;28.70;22.75;;;;;;;;;;5092495;28;20027;-65
2021/09/08 06:04:17;;;;;;;29.27;22.55;;;;;;;;;;5092087;28;20047;-66
2021/09/08 06:06:43;;;;;;;29.60;22.25;;;;;;;;;;5090400;28;20114;-65
2021/09/08 06:09:09;;;;;;;28.85;22.52;;;;;;;;;;5072172;28;20477;-66
2021/09/08 06:11:35;;;;;;;28.67;23.25;;;;;;;;;;5071767;28;20103;-66
2021/09/08 06:14:01;;;;;;;31.38;22.70;;;;;;;;;;5071680;28;20393;-66
2021/09/08 06:16:27;;;;;;;29.48;22.65;;;;;;;;;;5071299;28;20069;-65
2021/09/08 06:18:53;;;;;;;31.52;21.88;;;;;;;;;;5071493;28;20032;-65
2021/09/08 06:21:20;;;;;;;36.55;22.85;;;;;;;;;;5071681;28;20020;-66
2021/09/08 06:23:47;;;;;;;29.88;22.83;;;;;;;;;;5071450;28;20146;-65
2021/09/08 06:26:13;;;;;;;30.65;22.80;;;;;;;;;;5072598;28;20066;-65
2021/09/08 06:28:39;;;;;;;32.20;23.38;;;;;;;;;;5071597;28;20152;-66
2021/09/08 06:31:05;;;;;;;28.75;22.63;;;;;;;;;;5071727;28;20028;-65
2021/09/08 06:33:31;;;;;;;35.33;24.55;;;;;;;;;;5075263;28;20024;-65
2021/09/08 06:35:57;;;;;;;43.22;25.77;;;;;;;;;;5091633;28;20321;-66
2021/09/08 06:38:23;;;;;;;32.50;23.10;;;;;;;;;;5083670;28;20025;-66
2021/09/08 06:40:51;;;;;;;32.22;23.90;;;;;;;;;;5070584;28;20506;-65
2021/09/08 06:43:17;;;;;;;29.77;22.83;;;;;;;;;;5071577;28;20023;-66
2021/09/08 06:45:43;;;;;;;40.13;23.95;;;;;;;;;;5070195;28;20123;-65
2021/09/08 06:48:09;;;;;;;29.65;23.13;;;;;;;;;;5071307;28;20031;-66
2021/09/08 06:50:35;;;;;;;33.83;22.42;;;;;;;;;;5071362;28;20508;-66
2021/09/08 06:53:01;;;;;;;31.95;24.77;;;;;;;;;;5079080;28;20108;-67
2021/09/08 06:55:27;;;;;;;41.72;24.02;;;;;;;;;;5091448;28;20526;-67
2021/09/08 06:57:53;;;;;;;33.55;24.42;;;;;;;;;;5091571;28;20061;-66
2021/09/08 07:00:19;;;;;;;33.92;22.85;;;;;;;;;;5091932;28;20055;-66
2021/09/08 07:02:45;;;;;;;31.00;23.98;;;;;;;;;;5093505;28;20035;-66
2021/09/08 07:05:11;;;;;;;30.45;23.92;;;;;;;;;;5092387;28;20045;-66
2021/09/08 07:07:37;;;;;;;31.42;24.35;;;;;;;;;;5089301;28;20321;-66
2021/09/08 07:10:03;;;;;;;28.02;24.38;;;;;;;;;;5079968;28;20032;-66
2021/09/08 07:12:29;;;;;;;30.52;23.48;;;;;;;;;;5090502;28;20031;-66
2021/09/08 07:14:55;;;;;;;29.70;23.75;;;;;;;;;;5091329;28;20035;-66
2021/09/08 07:17:21;;;;;;;27.90;23.40;;;;;;;;;;5089744;28;20483;-66
2021/09/08 07:19:47;;;;;;;33.97;24.13;;;;;;;;;;5090079;28;20024;-66
2021/09/08 07:22:13;;;;;;;35.70;25.00;;;;;;;;;;5091625;28;20050;-66
2021/09/08 07:24:41;;;;;;;34.38;24.17;;;;;;;;;;5089525;28;20028;-66
2021/09/08 07:27:07;;;;;;;32.00;24.52;;;;;;;;;;5090210;28;20495;-65
2021/09/08 07:29:33;;;;;;;29.05;24.00;;;;;;;;;;5090091;28;20032;-66
2021/09/08 07:31:59;;;;;;;29.55;23.48;;;;;;;;;;5091399;28;20570;-66
2021/09/08 07:34:26;;;;;;;33.30;24.15;;;;;;;;;;5091143;28;20024;-66
2021/09/08 07:36:52;;;;;;;30.90;24.13;;;;;;;;;;5091893;28;20104;-66
2021/09/08 07:39:18;;;;;;;32.78;25.23;;;;;;;;;;5091439;28;20451;-66
2021/09/08 07:41:44;;;;;;;27.70;23.67;;;;;;;;;;5090337;28;20032;-66
2021/09/08 07:44:10;;;;;;;29.98;24.33;;;;;;;;;;5078259;28;20036;-66
2021/09/08 07:46:36;;;;;;;36.17;23.77;;;;;;;;;;5069735;28;20024;-66
2021/09/08 07:49:02;;;;;;;29.98;24.20;;;;;;;;;;5071050;28;20069;-66
2021/09/08 07:51:28;;;;;;;27.77;23.90;;;;;;;;;;5071064;28;20027;-66
2021/09/08 07:53:55;;;;;;;29.95;24.90;;;;;;;;;;5070913;28;20562;-66
2021/09/08 07:56:21;;;;;;;30.40;23.33;;;;;;;;;;5071064;28;20389;-66
2021/09/08 07:58:47;;;;;;;33.38;25.25;;;;;;;;;;5076061;28;20518;-67
2021/09/08 08:01:13;;;;;;;29.58;22.98;;;;;;;;;;5091775;28;20058;-66
2021/09/08 08:03:39;;;;;;;29.52;22.85;;;;;;;;;;5093333;28;20070;-66
2021/09/08 08:06:05;;;;;;;25.52;21.40;;;;;;;;;;5093637;28;20062;-63
2021/09/08 08:08:31;;;;;;;26.73;22.83;;;;;;;;;;5093671;28;20028;-68
2021/09/08 08:10:57;;;;;;;29.80;22.42;;;;;;;;;;5093434;28;20418;-67
2021/09/08 08:13:23;;;;;;;28.52;23.00;;;;;;;;;;5094599;28;20031;-60
2021/09/08 08:15:49;;;;;;;27.65;22.55;;;;;;;;;;5091894;28;20082;-61
2021/09/08 08:18:16;;;;;;;27.55;23.15;;;;;;;;;;5075239;28;20067;-60
2021/09/08 08:20:42;;;;;;;27.30;23.02;;;;;;;;;;5074445;28;20024;-60
2021/09/08 08:23:08;;;;;;;27.15;21.98;;;;;;;;;;5073920;28;20025;-61
2021/09/08 08:25:34;;;;;;;30.10;22.95;;;;;;;;;;5073877;28;20396;-61
2021/09/08 08:28:04;;;;;;;39.63;29.05;;;;;;;;;;5074150;28;20033;-59
2021/09/08 08:30:31;;;;;;;28.48;22.58;;;;;;;;;;5074113;28;20035;-61
2021/09/08 08:32:57;;;;;;;30.38;22.35;;;;;;;;;;5074059;28;20043;-60
2021/09/08 08:35:23;;;;;;;25.27;21.90;;;;;;;;;;5091036;28;20028;-62
2021/09/08 08:37:50;;;;;;;28.05;22.45;;;;;;;;;;5093933;28;20032;-61
2021/09/08 08:40:17;;;;;;;28.55;23.15;;;;;;;;;;5094079;28;20019;-60
2021/09/08 08:42:43;;;;;;;27.17;23.15;;;;;;;;;;5093700;28;20028;-61
2021/09/08 08:45:09;;;;;;;29.92;23.73;;;;;;;;;;5093305;28;20031;-61
2021/09/08 08:47:36;;;;;;;26.13;23.33;;;;;;;;;;5092647;28;20028;-62
2021/09/08 08:50:02;;;;;;;25.73;22.92;;;;;;;;;;5090436;28;20537;-61
2021/09/08 08:52:28;;;;;;;27.70;23.58;;;;;;;;;;5071986;28;20032;-61
2021/09/08 08:54:54;;;;;;;27.02;23.15;;;;;;;;;;5072249;28;20029;-61
2021/09/08 08:57:20;;;;;;;26.67;22.45;;;;;;;;;;5073428;28;20025;-61
2021/09/08 08:59:49;;;;;;;32.88;22.48;;;;;;;;;;5071740;28;20024;-61
2021/09/08 09:02:15;;;;;;;;;;;;;;;;;;5072030;28;20104;-61
2021/09/08 09:04:41;;;;;;;26.30;22.80;;;;;;;;;;5071826;28;20386;-61
2021/09/08 09:07:07;;;;;;;26.85;22.58;;;;;;;;;;5072893;28;20024;-61
2021/09/08 09:09:33;;;;;;;26.98;22.98;;;;;;;;;;5072653;28;20468;-61
2021/09/08 09:11:59;;;;;;;31.60;24.35;;;;;;;;;;5072584;28;20032;-61
2021/09/08 09:14:25;;;;;;;27.25;22.67;;;;;;;;;;5073509;28;20075;-62
2021/09/08 09:16:51;;;;;;;27.67;23.42;;;;;;;;;;5072814;28;20363;-61
2021/09/08 09:19:17;;;;;;;26.95;24.05;;;;;;;;;;5073068;28;20553;-61
2021/09/08 09:21:43;;;;;;;27.92;22.35;;;;;;;;;;5072772;28;20028;-61
2021/09/08 09:24:09;;;;;;;25.67;22.35;;;;;;;;;;5073908;28;20099;-61
2021/09/08 09:26:39;;;;;;;25.60;22.55;;;;;;;;;;5072446;28;20098;-61
2021/09/08 09:29:06;;;;;;;27.95;23.40;;;;;;;;;;5072513;28;20559;-61
2021/09/08 09:31:49;;;;;;;29.30;25.05;;;;;;;;;;5073284;28;20081;-61
2021/09/08 09:34:15;;;;;;;26.50;23.60;;;;;;;;;;5071432;28;20035;-60
2021/09/08 09:36:41;;;;;;;27.98;24.98;;;;;;;;;;5072395;28;20021;-61
2021/09/08 09:39:07;;;;;;;27.13;24.15;;;;;;;;;;5071217;28;20020;-61
2021/09/08 09:41:35;;;;;;;28.05;24.90;;;;;;;;;;5073341;28;20500;-60
2021/09/08 09:44:14;;;;;;;28.05;24.23;;;;;;;;;;5071970;28;20021;-60
2021/09/08 09:46:40;;;;;;;27.00;24.10;;;;;;;;;;5072529;28;20051;-61
2021/09/08 09:49:06;;;;;;;29.08;24.70;;;;;;;;;;5072088;28;20490;-61
2021/09/08 09:51:32;;;;;;;26.23;23.33;;;;;;;;;;5072475;28;20392;-60
2021/09/08 09:53:59;;;;;;;27.90;23.55;;;;;;;;;;5070915;28;20024;-59
2021/09/08 09:56:25;;;;;;;26.17;23.05;;;;;;;;;;5072111;28;20027;-60
2021/09/08 09:58:52;;;;;;;27.08;23.83;;;;;;;;;;5073107;28;20028;-61
2021/09/08 10:01:19;;;;;;;26.13;23.35;;;;;;;;;;5082762;28;20431;-61
2021/09/08 10:03:45;;;;;;;25.48;22.83;;;;;;;;;;5090882;28;20054;-61
2021/09/08 10:06:12;;;;;;;28.10;23.95;;;;;;;;;;5092424;28;20024;-61
2021/09/08 10:08:40;;;;;;;41.42;25.52;;;;;;;;;;5092483;28;20043;-61
2021/09/08 10:11:08;;;;;;;26.85;23.98;;;;;;;;;;5092352;28;20468;-60
2021/09/08 10:13:46;;;;;;;28.20;23.77;;;;;;;;;;5091579;28;20024;-60
2021/09/08 10:16:12;;;;;;;26.70;24.00;;;;;;;;;;5088952;28;20040;-62
2021/09/08 10:18:41;;;;;;;26.33;22.92;;;;;;;;;;5091773;28;20383;-61
2021/09/08 10:21:19;;;;;;;27.48;24.58;;;;;;;;;;5091534;28;20422;-61
2021/09/08 10:23:46;;;;;;;27.55;23.10;;;;;;;;;;5089771;28;20078;-60
2021/09/08 10:26:16;;;;;;;27.35;24.55;;;;;;;;;;5091108;28;20031;-61
2021/09/08 10:28:43;;;;;;;26.80;23.23;;;;;;;;;;5091796;28;20035;-61
2021/09/08 10:31:10;;;;;;;26.63;23.73;;;;;;;;;;5090506;28;20081;-61
2021/09/08 10:33:37;;;;;;;27.13;22.58;;;;;;;;;;5079756;28;20100;-61
2021/09/08 10:36:03;;;;;;;26.40;22.25;;;;;;;;;;5071536;28;20024;-62
2021/09/08 10:38:30;;;;;;;26.80;23.38;;;;;;;;;;5070998;28;20499;-62
2021/09/08 10:40:57;;;;;;;24.25;21.65;;;;;;;;;;5071040;28;20034;-61
2021/09/08 10:43:27;;;;;;;26.08;23.33;;;;;;;;;;5071486;28;20082;-61
2021/09/08 10:45:55;;;;;;;27.70;23.25;;;;;;;;;;5071279;28;20020;-61
2021/09/08 10:48:35;;;;;;;26.55;22.88;;;;;;;;;;5070263;28;20059;-63
2021/09/08 10:51:01;;;;;;;25.55;22.73;;;;;;;;;;5083924;28;20060;-62
2021/09/08 10:53:27;;;;;;;25.90;23.20;;;;;;;;;;5091529;28;20055;-59
2021/09/08 10:55:53;;;;;;;28.08;23.55;;;;;;;;;;5090161;28;20051;-61
2021/09/08 10:58:20;;;;;;;26.02;23.23;;;;;;;;;;5091310;28;20021;-63
2021/09/08 11:00:46;;;;;;;26.52;23.13;;;;;;;;;;5091053;28;20176;-62
2021/09/08 11:03:15;;;;;;;26.65;23.80;;;;;;;;;;5091028;28;20137;-57
2021/09/08 11:05:49;;;;;;;26.45;23.65;;;;;;;;;;5088843;28;20047;-63
2021/09/08 11:08:22;;;;;;;27.35;23.15;;;;;;;;;;4735242;28;10000359;-64
2021/09/08 11:10:48;;;;;;;27.25;23.05;;;;;;;;;;5087311;28;20073;-62
2021/09/08 11:13:23;;;;;;;25.35;22.77;;;;;;;;;;5088272;28;20032;-62
2021/09/08 11:15:49;;;;;;;25.30;22.63;;;;;;;;;;5088102;28;20396;-62
2021/09/08 11:18:15;;;;;;;26.55;23.70;;;;;;;;;;5086365;28;20024;-63
2021/09/08 11:20:42;;;;;;;27.13;24.33;;;;;;;;;;5087989;28;20115;-63
2021/09/08 11:23:09;;;;;;;25.92;23.17;;;;;;;;;;5075063;28;20307;-62
2021/09/08 11:25:36;;;;;;;26.10;23.40;;;;;;;;;;5075449;28;20399;-62
2021/09/08 11:28:03;;;;;;;25.48;22.75;;;;;;;;;;5079271;28;20035;-61
2021/09/08 11:30:33;;;;;;;25.83;23.15;;;;;;;;;;5075536;28;20020;-63
2021/09/08 11:33:04;;;;;;;25.88;23.27;;;;;;;;;;5078328;28;20017;-63
2021/09/08 11:35:41;;;;;;;25.10;22.55;;;;;;;;;;5074470;28;20027;-62
2021/09/08 11:38:09;;;;;;;25.98;23.27;;;;;;;;;;5077434;28;20020;-62
2021/09/08 11:40:35;;;;;;;28.80;22.50;;;;;;;;;;5078321;28;20059;-63
2021/09/08 11:43:01;;;;;;;25.30;22.70;;;;;;;;;;5072436;28;20036;-63
2021/09/08 11:45:32;;;;;;;25.58;22.85;;;;;;;;;;5091982;28;20039;-64
2021/09/08 11:47:59;;;;;;;25.13;22.60;;;;;;;;;;5081603;28;20036;-64
2021/09/08 11:50:25;;;;;;;25.42;22.75;;;;;;;;;;5077779;28;20377;-65
2021/09/08 11:52:58;;;;;;;25.83;22.35;;;;;;;;;;5070097;28;20029;-64
2021/09/08 11:55:32;;;;;;;25.00;22.50;;;;;;;;;;5071262;28;20190;-64
2021/09/08 11:58:17;;;;;;;25.00;22.60;;;;;;;;;;5071393;28;20024;-64
2021/09/08 12:00:56;;;;;;;24.40;22.02;;;;;;;;;;5090998;28;20034;-64
2021/09/08 12:03:22;;;;;;;24.92;22.25;;;;;;;;;;5090238;28;20027;-63
2021/09/08 12:05:49;;;;;;;23.77;21.38;;;;;;;;;;5091424;28;20485;-64
2021/09/08 12:08:19;;;;;;;23.77;21.33;;;;;;;;;;5081711;28;20040;-64
2021/09/08 12:10:45;;;;;;;23.55;21.05;;;;;;;;;;5070607;28;20027;-65
2021/09/08 12:13:10;;;;;;;25.25;22.65;;;30.50;80.20;;;;;;5072374;28;20027;-64
2021/09/08 12:15:36;;;;;;;24.35;22.00;;;35.70;88.30;;;;;;5092144;28;20019;-63
2021/09/08 12:18:17;;;;;;;25.83;22.30;;;36.10;90.50;;;;;;5091773;28;20039;-63
2021/09/08 12:20:43;;;;;;;26.00;21.98;;;;;;;;;;5092844;28;20039;-64
2021/09/08 12:23:26;;;;;;;24.30;21.98;;;;;;;;;;5094078;28;20381;-64
2021/09/08 12:26:04;;;;;;;25.33;22.80;;;;;;;;;;5082269;28;20480;-64
2021/09/08 12:28:30;;;;;;;24.42;21.98;;;37.40;90.20;;;;;;5072273;28;20025;-64
2021/09/08 12:31:15;;;;;;;25.42;22.85;;;36.40;88.30;;;;;;5072821;28;20396;-64
2021/09/08 12:33:54;;;;;;;25.42;22.83;;;37.10;87.60;;;;;;5088294;28;20024;-64
2021/09/08 12:36:20;;;;;;;24.52;22.02;;;37.30;88.30;;;;;;5073486;28;20077;-64
2021/09/08 12:38:53;;;;;;;25.83;23.33;;;;;;;;;;5072351;28;20020;-64
2021/09/08 12:41:22;;;;;;;25.63;23.13;;;37.30;88.70;;;;;;5072484;28;20036;-64
2021/09/08 12:43:59;;;;;;;24.88;22.38;;;;;;;;;;5073338;28;20039;-62
2021/09/08 12:46:38;;;;;;;24.90;22.53;;;38.70;87.00;;;;;;5071974;28;20021;-64
2021/09/08 12:49:08;;;;;;;24.30;21.90;;;36.90;87.10;;;;;;5073342;28;20522;-64
2021/09/08 12:51:34;;;;;;;25.25;22.75;;;38.00;87.50;;;;;;5074339;28;20052;-64
2021/09/08 12:54:00;;;;;;;25.85;23.15;;;37.80;87.10;;;;;;5073278;28;20024;-64
2021/09/08 12:56:25;;;;;;;25.20;22.65;;;38.50;86.20;;;;;;5073185;28;20039;-62
2021/09/08 12:58:51;;;;;;;25.50;22.77;;;39.40;84.60;;;;;;5072812;28;20150;-65
2021/09/08 13:01:21;;;;;;;25.10;22.65;;;38.10;84.20;;;;;;5070603;28;20024;-64
2021/09/08 13:03:46;;;;;;;25.20;22.75;;;38.70;83.90;;;;;;5072425;28;20074;-64
2021/09/08 13:06:12;;;;;;;26.05;23.45;;;38.70;84.10;;;;;;5072822;28;20100;-64
2021/09/08 13:08:39;;;;;;;25.42;22.83;;;38.50;84.10;;;;;;5073384;28;20024;-64
2021/09/08 13:11:05;;;;;;;24.53;22.23;;;38.30;83.20;;;;;;5093108;28;20038;-64
2021/09/08 13:13:30;;;;;;;24.40;22.00;;;38.50;82.60;;;;;;5093223;28;20636;-64
2021/09/08 13:15:56;;;;;;;24.10;21.80;;;38.40;83.90;;;;;;5092060;28;20417;-64
2021/09/08 13:18:21;;;;;;;24.30;21.88;;;39.30;81.00;;;;;;5093585;28;20032;-63
2021/09/08 13:20:47;;;;;;;24.58;22.08;;;40.20;79.30;;;;;;5093387;28;20483;-64
2021/09/08 13:23:13;;;;;;;24.63;22.17;;;39.70;78.30;;;;;;5091113;28;20399;-63
2021/09/08 13:25:39;;;;;;;24.77;22.27;;;39.90;79.20;;;;;;5092329;28;20017;-63
2021/09/08 13:28:05;;;;;;;24.58;21.98;;;39.70;76.80;;;;;;5091552;28;20028;-64
2021/09/08 13:30:31;;;;;;;24.17;21.75;;;37.90;75.80;;;;;;5091588;28;20044;-64
2021/09/08 13:32:56;;;;;;;23.65;21.25;;;37.00;78.60;;;;;;5092603;28;20103;-64
2021/09/08 13:35:22;;;;;;;23.65;21.35;;;37.40;78.10;;;;;;5090737;28;20024;-64
2021/09/08 13:37:48;;;;;;;24.10;21.75;;;38.50;78.20;;;;;;5092010;28;20111;-64
2021/09/08 13:40:14;;;;;;;25.80;22.92;;;39.60;77.10;;;;;;5092387;28;20024;-64
2021/09/08 13:42:40;;;;;;;24.23;21.93;;;39.70;77.30;;;;;;5092348;28;20051;-64
2021/09/08 13:45:06;;;;;;;24.92;22.52;;;39.30;78.60;;;;;;5090374;28;20028;-64
2021/09/08 13:47:32;;;;;;;24.45;21.95;;;39.20;76.20;;;;;;5091947;28;20098;-64
2021/09/08 13:49:58;;;;;;;24.25;21.95;;;37.10;76.60;;;;;;5092539;28;20031;-64
2021/09/08 13:52:23;;;;;;;24.98;22.35;;;38.50;76.90;;;;;;5092409;28;20043;-64
2021/09/08 13:54:49;;;;;;;24.33;22.02;;;39.70;76.90;;;;;;5092392;28;20030;-64
2021/09/08 13:57:15;;;;;;;24.20;21.90;;;39.60;76.60;;;;;;5092167;28;20028;-64
2021/09/08 13:59:40;;;;;;;23.63;21.25;;;39.90;76.00;;;;;;5089900;28;20055;-64
2021/09/08 14:02:06;;;;;;;24.23;21.83;;;39.90;75.60;;;;;;5081290;28;20046;-64